createdAt,value
2018-10-12T00:00:13.767Z,19.80
2018-10-12T00:02:43.903Z,19.80
2018-10-12T00:05:13.608Z,19.80
2018-10-12T00:07:43.321Z,19.80
2018-10-12T00:10:12.794Z,19.80
2018-10-12T00:12:42.238Z,19.70
2018-10-12T00:15:11.630Z,19.70
2018-10-12T00:17:40.839Z,19.70
2018-10-12T00:20:10.368Z,19.60
2018-10-12T00:22:39.597Z,19.60
2018-10-12T00:25:08.827Z,19.60
2018-10-12T00:27:37.989Z,19.60
2018-10-12T00:30:07.198Z,19.60
2018-10-12T00:32:36.527Z,19.50
2018-10-12T00:35:05.702Z,19.50
2018-10-12T00:37:35.299Z,19.60
2018-10-12T00:40:04.491Z,19.60
2018-10-12T00:42:33.670Z,19.60
2018-10-12T00:45:02.844Z,19.60
2018-10-12T00:47:32.066Z,19.60
2018-10-12T00:50:01.329Z,19.60
2018-10-12T00:52:30.559Z,19.60
2018-10-12T00:54:59.755Z,19.60
2018-10-12T00:57:28.999Z,19.60
2018-10-12T00:59:58.145Z,19.50
2018-10-12T01:02:27.337Z,19.50
2018-10-12T01:04:56.503Z,19.50
2018-10-12T01:07:25.733Z,19.50
2018-10-12T01:09:54.912Z,19.50
2018-10-12T01:12:36.745Z,19.40
2018-10-12T01:15:06.367Z,19.40
2018-10-12T01:17:36.199Z,19.40
2018-10-12T01:20:05.775Z,19.40
2018-10-12T01:22:34.984Z,19.40
2018-10-12T01:25:05.063Z,19.40
2018-10-12T01:27:34.623Z,19.40
2018-10-12T01:30:04.579Z,19.40
2018-10-12T01:32:38.999Z,19.40
2018-10-12T01:35:08.247Z,19.50
2018-10-12T01:37:37.506Z,19.50
2018-10-12T01:40:06.685Z,19.50
2018-10-12T01:42:35.934Z,19.50
2018-10-12T01:45:05.120Z,19.50
2018-10-12T01:47:34.323Z,19.50
2018-10-12T01:50:03.528Z,19.50
2018-10-12T01:52:32.721Z,19.50
2018-10-12T01:55:01.925Z,19.50
2018-10-12T01:57:31.082Z,19.50
2018-10-12T02:00:00.255Z,19.50
2018-10-12T02:02:29.735Z,19.40
2018-10-12T02:04:58.921Z,19.40
2018-10-12T02:07:28.118Z,19.40
2018-10-12T02:09:57.306Z,19.40
2018-10-12T02:12:26.540Z,19.40
2018-10-12T02:14:55.744Z,19.40
2018-10-12T02:17:24.915Z,19.30
2018-10-12T02:19:54.076Z,19.30
2018-10-12T02:22:23.280Z,19.30
2018-10-12T02:24:52.467Z,19.30
2018-10-12T02:27:21.662Z,19.30
2018-10-12T02:29:50.822Z,19.20
2018-10-12T02:32:20.030Z,19.20
2018-10-12T02:34:49.211Z,19.20
2018-10-12T02:37:18.443Z,19.20
2018-10-12T02:39:47.657Z,19.20
2018-10-12T02:42:16.905Z,19.20
2018-10-12T02:44:46.249Z,19.10
2018-10-12T02:47:15.506Z,19.10
2018-10-12T02:49:44.678Z,19.10
2018-10-12T02:52:13.882Z,19.10
2018-10-12T02:54:43.052Z,19.10
2018-10-12T02:57:12.242Z,19.10
2018-10-12T02:59:41.712Z,19.10
2018-10-12T03:02:10.979Z,19.10
2018-10-12T03:04:40.168Z,19.10
2018-10-12T03:07:09.436Z,19.00
2018-10-12T03:09:38.621Z,19.00
2018-10-12T03:12:07.814Z,19.00
2018-10-12T03:14:37.003Z,19.00
2018-10-12T03:17:06.291Z,18.90
2018-10-12T03:19:35.503Z,18.90
2018-10-12T03:22:04.664Z,18.90
2018-10-12T03:24:33.853Z,18.80
2018-10-12T03:27:02.999Z,18.80
2018-10-12T03:29:32.210Z,18.80
2018-10-12T03:32:01.953Z,18.70
2018-10-12T03:34:31.198Z,18.70
2018-10-12T03:37:00.413Z,18.70
2018-10-12T03:39:29.663Z,18.60
2018-10-12T03:41:58.974Z,18.60
2018-10-12T03:44:28.175Z,18.60
2018-10-12T03:46:57.378Z,18.50
2018-10-12T03:49:26.614Z,18.50
2018-10-12T03:51:55.802Z,18.50
2018-10-12T03:54:25.025Z,18.40
2018-10-12T03:56:54.250Z,18.40
2018-10-12T03:59:23.523Z,18.40
2018-10-12T04:01:52.714Z,18.30
2018-10-12T04:04:21.922Z,18.30
2018-10-12T04:06:51.127Z,18.30
2018-10-12T04:09:20.364Z,18.20
2018-10-12T04:11:49.574Z,18.20
2018-10-12T04:14:18.804Z,18.20
2018-10-12T04:16:48.015Z,18.10
2018-10-12T04:19:17.311Z,18.10
2018-10-12T04:21:46.498Z,18.10
2018-10-12T04:24:15.745Z,18.10
2018-10-12T04:26:44.906Z,18.00
2018-10-12T04:29:14.174Z,18.00
2018-10-12T04:31:43.355Z,16.50
2018-10-12T04:34:12.593Z,17.90
2018-10-12T04:36:41.799Z,17.90
2018-10-12T04:39:21.801Z,17.90
2018-10-12T04:41:50.981Z,17.90
2018-10-12T04:44:20.183Z,17.90
2018-10-12T04:46:49.364Z,17.80
2018-10-12T04:49:18.637Z,17.80
2018-10-12T04:51:53.213Z,17.80
2018-10-12T04:54:22.849Z,17.80
2018-10-12T04:56:52.407Z,17.80
2018-10-12T04:59:21.961Z,17.80
2018-10-12T05:01:51.161Z,17.80
2018-10-12T05:04:20.504Z,17.80
2018-10-12T05:06:49.688Z,17.70
2018-10-12T05:09:18.904Z,17.70
2018-10-12T05:11:48.104Z,17.70
2018-10-12T05:14:17.352Z,17.60
2018-10-12T05:16:46.545Z,17.60
2018-10-12T05:19:15.768Z,17.60
2018-10-12T05:21:44.923Z,17.60
2018-10-12T05:24:14.155Z,17.60
2018-10-12T05:26:43.347Z,17.50
2018-10-12T05:29:12.573Z,17.50
2018-10-12T05:31:41.744Z,17.50
2018-10-12T05:34:10.980Z,17.50
2018-10-12T05:36:40.149Z,17.40
2018-10-12T05:39:11.139Z,17.40
2018-10-12T05:41:40.317Z,17.40
2018-10-12T05:44:09.640Z,17.40
2018-10-12T05:46:38.933Z,17.40
2018-10-12T05:49:19.106Z,17.40
2018-10-12T05:51:48.315Z,17.30
2018-10-12T05:54:17.545Z,17.30
2018-10-12T05:56:46.804Z,17.30
2018-10-12T05:59:16.026Z,17.20
2018-10-12T06:01:45.241Z,17.20
2018-10-12T06:04:14.442Z,17.20
2018-10-12T06:06:43.626Z,17.20
2018-10-12T06:09:12.870Z,17.20
2018-10-12T06:11:42.068Z,17.20
2018-10-12T06:14:11.260Z,17.20
2018-10-12T06:16:40.487Z,17.20
2018-10-12T06:19:09.691Z,17.10
2018-10-12T06:21:38.949Z,17.10
2018-10-12T06:24:08.204Z,17.10
2018-10-12T06:26:37.492Z,17.10
2018-10-12T06:29:06.686Z,17.10
2018-10-12T06:31:35.940Z,17.10
2018-10-12T06:34:05.127Z,17.10
2018-10-12T06:36:34.356Z,17.10
2018-10-12T06:39:03.709Z,17.10
2018-10-12T06:41:33.069Z,17.20
2018-10-12T06:44:02.164Z,17.20
2018-10-12T06:46:31.416Z,17.20
2018-10-12T06:49:01.011Z,17.30
2018-10-12T06:51:30.785Z,17.30
2018-10-12T06:54:00.032Z,17.30
2018-10-12T06:56:29.323Z,17.30
2018-10-12T06:58:58.544Z,17.30
2018-10-12T07:01:27.892Z,17.30
2018-10-12T07:03:57.092Z,17.30
2018-10-12T07:06:26.351Z,17.30
2018-10-12T07:08:55.533Z,17.30
2018-10-12T07:11:24.759Z,17.30
2018-10-12T07:13:53.998Z,17.30
2018-10-12T07:16:23.216Z,17.30
2018-10-12T07:18:52.378Z,17.30
2018-10-12T07:21:21.615Z,17.30
2018-10-12T07:23:50.832Z,17.30
2018-10-12T07:26:20.066Z,17.30
2018-10-12T07:28:49.250Z,17.30
2018-10-12T07:31:18.551Z,17.30
2018-10-12T07:33:47.732Z,17.30
2018-10-12T07:36:16.970Z,17.30
2018-10-12T07:38:46.176Z,17.30
2018-10-12T07:41:15.400Z,17.40
2018-10-12T07:43:44.609Z,17.40
2018-10-12T07:46:13.839Z,17.40
2018-10-12T07:48:43.013Z,17.40
2018-10-12T07:51:12.242Z,17.50
2018-10-12T07:53:41.422Z,17.50
2018-10-12T07:56:10.651Z,17.60
2018-10-12T07:58:39.859Z,17.60
2018-10-12T08:01:09.141Z,17.70
2018-10-12T08:03:38.267Z,17.70
2018-10-12T08:06:07.584Z,17.80
2018-10-12T08:08:36.819Z,17.80
2018-10-12T08:11:06.062Z,17.90
2018-10-12T08:13:35.338Z,17.90
2018-10-12T08:16:04.575Z,18.00
2018-10-12T08:18:33.751Z,18.00
2018-10-12T08:21:02.963Z,18.10
2018-10-12T08:23:32.152Z,18.10
2018-10-12T08:26:01.364Z,18.20
2018-10-12T08:28:30.589Z,18.20
2018-10-12T08:30:59.952Z,18.30
2018-10-12T08:33:29.172Z,18.30
2018-10-12T08:35:58.376Z,18.40
2018-10-12T08:38:27.585Z,18.40
2018-10-12T08:40:56.789Z,18.40
2018-10-12T08:43:26.164Z,18.40
2018-10-12T08:45:55.395Z,18.50
2018-10-12T08:48:24.609Z,18.60
2018-10-12T08:50:53.829Z,18.60
2018-10-12T08:53:23.094Z,18.60
2018-10-12T08:55:52.282Z,18.70
2018-10-12T08:58:21.479Z,18.70
2018-10-12T09:00:50.709Z,18.80
2018-10-12T09:03:19.943Z,18.80
2018-10-12T09:05:49.119Z,18.80
2018-10-12T09:08:18.346Z,18.90
2018-10-12T09:10:47.499Z,19.00
2018-10-12T09:13:16.740Z,19.00
2018-10-12T09:15:45.936Z,19.00
2018-10-12T09:18:15.185Z,19.10
2018-10-12T09:20:44.451Z,19.10
2018-10-12T09:23:13.739Z,19.10
2018-10-12T09:25:42.912Z,19.20
2018-10-12T09:28:12.161Z,19.20
2018-10-12T09:30:41.336Z,19.30
2018-10-12T09:33:10.723Z,19.30
2018-10-12T09:35:40.000Z,19.30
2018-10-12T09:38:09.264Z,19.40
2018-10-12T09:40:38.442Z,19.40
2018-10-12T09:43:07.807Z,19.40
2018-10-12T09:45:36.965Z,19.50
2018-10-12T09:48:06.163Z,19.50
2018-10-12T09:50:35.395Z,19.50
2018-10-12T09:53:04.516Z,19.50
2018-10-12T09:55:33.729Z,19.50
2018-10-12T09:58:02.949Z,19.60
2018-10-12T10:00:37.145Z,19.60
2018-10-12T10:03:11.320Z,19.60
2018-10-12T10:05:40.541Z,19.60
2018-10-12T10:08:10.001Z,19.60
2018-10-12T10:10:39.034Z,19.70
2018-10-12T10:13:08.529Z,19.80
2018-10-12T10:15:37.734Z,19.80
2018-10-12T10:18:07.075Z,19.80
2018-10-12T10:20:36.268Z,19.90
2018-10-12T10:23:05.485Z,19.90
2018-10-12T10:25:34.818Z,20.00
2018-10-12T10:28:03.918Z,20.10
2018-10-12T10:30:33.088Z,20.10
2018-10-12T10:33:02.339Z,20.10
2018-10-12T10:35:31.542Z,20.20
2018-10-12T10:38:00.823Z,20.30
2018-10-12T10:40:30.102Z,20.30
2018-10-12T10:42:59.576Z,20.40
2018-10-12T10:45:28.803Z,20.50
2018-10-12T10:47:58.016Z,20.50
2018-10-12T10:50:27.233Z,20.60
2018-10-12T10:52:56.502Z,20.70
2018-10-12T10:55:25.761Z,20.70
2018-10-12T10:57:55.099Z,20.80
2018-10-12T11:00:24.589Z,20.90
2018-10-12T11:02:53.776Z,21.00
2018-10-12T11:05:23.031Z,21.10
2018-10-12T11:07:52.223Z,21.20
2018-10-12T11:10:21.457Z,21.30
2018-10-12T11:12:50.730Z,21.40
2018-10-12T11:15:19.953Z,21.50
2018-10-12T11:17:49.463Z,21.60
2018-10-12T11:20:18.680Z,21.70
2018-10-12T11:22:47.886Z,21.80
2018-10-12T11:25:17.133Z,21.90
2018-10-12T11:27:46.301Z,23.40
2018-10-12T11:30:15.521Z,22.10
2018-10-12T11:32:44.760Z,22.20
2018-10-12T11:35:14.000Z,22.30
2018-10-12T11:37:43.167Z,22.40
2018-10-12T11:40:12.399Z,22.50
2018-10-12T11:42:52.627Z,22.60
2018-10-12T11:45:21.937Z,22.80
2018-10-12T11:47:51.154Z,22.90
2018-10-12T11:50:20.497Z,23.00
2018-10-12T11:52:49.684Z,23.10
2018-10-12T11:55:19.233Z,23.30
2018-10-12T11:57:48.460Z,23.40
2018-10-12T12:00:17.722Z,23.50
2018-10-12T12:02:47.597Z,23.70
2018-10-12T12:05:16.888Z,23.80
2018-10-12T12:07:46.049Z,24.00
2018-10-12T12:10:15.274Z,24.10
2018-10-12T12:12:44.475Z,24.20
2018-10-12T12:15:13.691Z,24.30
2018-10-12T12:17:42.931Z,24.40
2018-10-12T12:20:12.226Z,24.50
2018-10-12T12:22:41.439Z,24.60
2018-10-12T12:25:27.995Z,24.80
2018-10-12T12:27:57.205Z,24.90
2018-10-12T12:30:26.466Z,25.10
2018-10-12T12:32:55.701Z,25.20
2018-10-12T12:35:25.559Z,25.40
2018-10-12T12:37:54.288Z,25.50
2018-10-12T12:40:23.551Z,25.60
2018-10-12T12:42:52.750Z,25.70
2018-10-12T12:45:22.342Z,25.80
2018-10-12T12:47:51.619Z,26.00
2018-10-12T12:50:20.848Z,26.00
2018-10-12T12:52:50.061Z,26.20
2018-10-12T12:55:19.310Z,26.20
2018-10-12T12:57:48.534Z,26.40
2018-10-12T13:00:17.819Z,26.50
2018-10-12T13:02:47.055Z,26.60
2018-10-12T13:05:16.359Z,26.70
2018-10-12T13:07:45.561Z,26.90
2018-10-12T13:10:14.801Z,27.00
2018-10-12T13:12:44.026Z,27.20
2018-10-12T13:15:13.247Z,27.30
2018-10-12T13:17:42.426Z,27.50
2018-10-12T13:20:11.722Z,27.60
2018-10-12T13:22:40.889Z,27.70
2018-10-12T13:25:10.103Z,27.90
2018-10-12T13:27:39.304Z,28.00
2018-10-12T13:30:08.544Z,28.10
2018-10-12T13:32:37.716Z,28.30
2018-10-12T13:35:07.490Z,28.40
2018-10-12T13:37:36.731Z,28.50
2018-10-12T13:40:05.983Z,28.60
2018-10-12T13:42:35.238Z,28.70
2018-10-12T13:45:05.008Z,28.90
2018-10-12T13:47:34.237Z,29.00
2018-10-12T13:50:03.907Z,29.10
2018-10-12T13:52:33.120Z,29.30
2018-10-12T13:55:03.102Z,29.40
2018-10-12T13:57:32.379Z,29.50
2018-10-12T14:00:01.570Z,29.70
2018-10-12T14:02:30.820Z,29.70
2018-10-12T14:05:00.003Z,29.90
2018-10-12T14:07:29.207Z,30.00
2018-10-12T14:09:58.528Z,30.10
2018-10-12T14:12:27.814Z,30.20
2018-10-12T14:14:56.956Z,30.30
2018-10-12T14:17:26.043Z,30.40
2018-10-12T14:19:55.215Z,30.50
2018-10-12T14:22:24.419Z,30.60
2018-10-12T14:24:53.794Z,30.70
2018-10-12T14:27:23.027Z,30.80
2018-10-12T14:29:52.293Z,30.90
2018-10-12T14:32:21.507Z,31.00
2018-10-12T14:34:50.855Z,31.10
2018-10-12T14:37:20.061Z,31.10
2018-10-12T14:39:49.237Z,31.30
2018-10-12T14:42:18.438Z,31.40
2018-10-12T14:44:47.649Z,31.40
2018-10-12T14:47:16.868Z,31.50
2018-10-12T14:49:46.052Z,31.60
2018-10-12T14:52:15.554Z,31.70
2018-10-12T14:54:44.761Z,31.80
2018-10-12T14:57:18.634Z,31.90
2018-10-12T14:59:48.853Z,32.00
2018-10-12T15:02:19.001Z,32.00
2018-10-12T15:04:48.184Z,32.10
2018-10-12T15:07:20.218Z,32.20
2018-10-12T15:09:49.463Z,32.20
2018-10-12T15:12:18.654Z,32.30
2018-10-12T15:14:58.592Z,32.30
2018-10-12T15:17:27.773Z,32.30
2018-10-12T15:19:56.939Z,32.30
2018-10-12T15:22:26.147Z,32.30
2018-10-12T15:24:55.327Z,32.20
2018-10-12T15:27:24.525Z,32.00
2018-10-12T15:29:53.664Z,31.90
2018-10-12T15:32:22.882Z,31.70
2018-10-12T15:34:52.087Z,31.40
2018-10-12T15:37:21.353Z,31.30
2018-10-12T15:39:50.680Z,31.10
2018-10-12T15:42:19.878Z,30.90
2018-10-12T15:44:49.053Z,30.60
2018-10-12T15:47:18.250Z,30.40
2018-10-12T15:49:47.559Z,30.20
2018-10-12T15:52:16.786Z,30.10
2018-10-12T15:54:45.851Z,29.90
2018-10-12T15:57:21.130Z,29.70
2018-10-12T15:59:50.502Z,29.50
2018-10-12T16:02:19.735Z,29.30
2018-10-12T16:04:48.932Z,29.20
2018-10-12T16:07:18.748Z,29.00
2018-10-12T16:09:50.366Z,28.80
2018-10-12T16:12:20.411Z,28.70
2018-10-12T16:14:49.712Z,28.50
2018-10-12T16:17:18.895Z,28.40
2018-10-12T16:19:48.085Z,28.30
2018-10-12T16:22:17.313Z,28.10
2018-10-12T16:24:57.538Z,28.00
2018-10-12T16:27:26.907Z,27.90
2018-10-12T16:29:56.221Z,27.70
2018-10-12T16:32:25.409Z,27.60
2018-10-12T16:34:54.576Z,27.50
2018-10-12T16:37:23.758Z,27.40
2018-10-12T16:39:52.915Z,27.30
2018-10-12T16:42:22.148Z,27.20
2018-10-12T16:44:51.325Z,27.10
2018-10-12T16:47:20.509Z,27.00
2018-10-12T16:49:49.691Z,27.00
2018-10-12T16:52:18.883Z,26.80
2018-10-12T16:54:48.071Z,26.70
2018-10-12T16:57:21.352Z,26.60
2018-10-12T16:59:50.548Z,26.60
2018-10-12T17:02:19.766Z,26.50
2018-10-12T17:04:48.985Z,26.40
2018-10-12T17:07:18.164Z,26.30
2018-10-12T17:09:47.365Z,26.20
2018-10-12T17:12:16.519Z,26.20
2018-10-12T17:14:45.730Z,26.10
2018-10-12T17:17:14.919Z,26.00
2018-10-12T17:19:44.129Z,26.00
2018-10-12T17:22:13.309Z,25.90
2018-10-12T17:24:42.523Z,25.80
2018-10-12T17:27:11.766Z,25.70
2018-10-12T17:29:40.974Z,25.70
2018-10-12T17:32:10.164Z,25.60
2018-10-12T17:34:39.525Z,25.60
2018-10-12T17:37:08.679Z,25.50
2018-10-12T17:39:37.878Z,25.40
2018-10-12T17:42:13.870Z,25.40
2018-10-12T17:44:43.043Z,25.30
2018-10-12T17:47:12.392Z,25.30
2018-10-12T17:49:41.616Z,25.20
2018-10-12T17:52:10.848Z,25.20
2018-10-12T17:54:40.079Z,25.10
2018-10-12T17:57:09.277Z,25.00
2018-10-12T17:59:38.505Z,25.00
2018-10-12T18:02:07.841Z,24.90
2018-10-12T18:04:37.101Z,24.90
2018-10-12T18:07:06.414Z,24.80
2018-10-12T18:09:35.631Z,24.80
2018-10-12T18:12:04.797Z,24.70
2018-10-12T18:14:34.005Z,24.70
2018-10-12T18:17:03.177Z,24.60
2018-10-12T18:19:32.591Z,24.60
2018-10-12T18:22:01.748Z,24.60
2018-10-12T18:24:30.948Z,24.50
2018-10-12T18:27:00.485Z,24.50
2018-10-12T18:29:29.697Z,24.40
2018-10-12T18:31:59.022Z,24.40
2018-10-12T18:34:28.249Z,24.30
2018-10-12T18:36:57.529Z,24.30
2018-10-12T18:39:26.684Z,24.20
2018-10-12T18:41:55.998Z,24.10
2018-10-12T18:44:25.227Z,24.00
2018-10-12T18:46:54.591Z,24.00
2018-10-12T18:49:23.785Z,23.90
2018-10-12T18:51:52.957Z,23.90
2018-10-12T18:54:22.168Z,23.80
2018-10-12T18:56:51.351Z,23.80
2018-10-12T18:59:20.530Z,23.70
2018-10-12T19:01:49.711Z,23.70
2018-10-12T19:04:18.956Z,23.60
2018-10-12T19:06:48.558Z,23.60
2018-10-12T19:09:17.741Z,23.50
2018-10-12T19:11:46.913Z,23.50
2018-10-12T19:14:16.192Z,23.40
2018-10-12T19:16:45.362Z,23.40
2018-10-12T19:19:14.607Z,23.30
2018-10-12T19:21:43.769Z,23.30
2018-10-12T19:24:13.086Z,23.30
2018-10-12T19:26:42.215Z,23.20
2018-10-12T19:29:11.399Z,23.20
2018-10-12T19:31:40.652Z,23.10
2018-10-12T19:34:09.798Z,23.10
2018-10-12T19:36:39.091Z,23.10
2018-10-12T19:39:09.412Z,23.00
2018-10-12T19:41:38.615Z,23.00
2018-10-12T19:44:08.485Z,22.90
2018-10-12T19:46:37.675Z,22.80
2018-10-12T19:49:07.379Z,22.80
2018-10-12T19:51:36.712Z,22.80
2018-10-12T19:54:05.932Z,22.70
2018-10-12T19:56:35.156Z,22.60
2018-10-12T19:59:04.425Z,22.60
2018-10-12T20:01:33.674Z,22.60
2018-10-12T20:04:02.835Z,22.60
2018-10-12T20:06:32.052Z,22.50
2018-10-12T20:09:01.263Z,22.50
2018-10-12T20:11:30.457Z,22.40
2018-10-12T20:13:59.625Z,22.40
2018-10-12T20:16:28.832Z,22.30
2018-10-12T20:18:57.976Z,22.30
2018-10-12T20:21:27.286Z,22.20
2018-10-12T20:23:56.482Z,22.20
2018-10-12T20:26:25.654Z,22.10
2018-10-12T20:28:54.846Z,22.10
2018-10-12T20:31:24.216Z,22.00
2018-10-12T20:33:53.827Z,22.00
2018-10-12T20:36:23.173Z,22.00
2018-10-12T20:38:52.334Z,22.00
2018-10-12T20:41:21.511Z,21.90
2018-10-12T20:43:50.643Z,21.90
2018-10-12T20:46:19.907Z,21.80
2018-10-12T20:48:49.052Z,21.80
2018-10-12T20:51:18.190Z,21.80
2018-10-12T20:53:47.423Z,21.70
2018-10-12T20:56:16.668Z,21.70
2018-10-12T20:58:45.832Z,21.70
2018-10-12T21:01:15.017Z,21.60
2018-10-12T21:03:44.217Z,21.60
2018-10-12T21:06:13.398Z,21.60
2018-10-12T21:08:42.567Z,21.60
2018-10-12T21:11:11.798Z,21.50
2018-10-12T21:13:42.272Z,21.60
2018-10-12T21:16:11.598Z,21.50
2018-10-12T21:18:40.805Z,21.50
2018-10-12T21:21:10.009Z,21.50
2018-10-12T21:23:39.223Z,21.50
2018-10-12T21:26:08.387Z,21.50
2018-10-12T21:28:37.562Z,21.50
2018-10-12T21:31:06.815Z,21.40
2018-10-12T21:33:35.973Z,21.40
2018-10-12T21:36:05.182Z,21.30
2018-10-12T21:38:34.348Z,21.30
2018-10-12T21:41:03.541Z,21.20
2018-10-12T21:43:32.739Z,21.10
2018-10-12T21:46:01.901Z,21.00
2018-10-12T21:48:31.131Z,21.00
2018-10-12T21:51:00.300Z,20.90
2018-10-12T21:53:29.491Z,20.90
2018-10-12T21:55:58.666Z,20.80
2018-10-12T21:58:28.051Z,20.70
2018-10-12T22:01:02.360Z,20.70
2018-10-12T22:03:32.219Z,20.60
2018-10-12T22:06:01.438Z,20.60
2018-10-12T22:08:35.759Z,20.60
2018-10-12T22:11:05.500Z,20.50
2018-10-12T22:13:35.264Z,20.40
2018-10-12T22:16:04.423Z,20.40
2018-10-12T22:18:33.612Z,20.40
2018-10-12T22:21:02.801Z,20.30
2018-10-12T22:23:32.012Z,20.30
2018-10-12T22:26:01.557Z,20.30
2018-10-12T22:28:30.749Z,20.30
2018-10-12T22:31:00.275Z,20.30
2018-10-12T22:33:29.482Z,20.30
2018-10-12T22:35:58.678Z,20.30
2018-10-12T22:38:27.896Z,20.30
2018-10-12T22:40:57.085Z,20.20
2018-10-12T22:43:27.186Z,20.20
2018-10-12T22:45:56.322Z,20.20
2018-10-12T22:48:25.526Z,20.20
2018-10-12T22:50:54.679Z,20.20
2018-10-12T22:53:24.041Z,20.20
2018-10-12T22:55:53.202Z,20.20
2018-10-12T22:58:22.451Z,20.20
2018-10-12T23:00:51.619Z,20.20
2018-10-12T23:03:20.851Z,20.20
2018-10-12T23:05:50.065Z,20.10
2018-10-12T23:08:19.305Z,20.10
2018-10-12T23:10:48.505Z,20.10
2018-10-12T23:13:17.700Z,20.10
2018-10-12T23:15:46.871Z,20.00
2018-10-12T23:18:16.080Z,19.90
2018-10-12T23:20:45.260Z,19.90
2018-10-12T23:23:14.477Z,19.80
2018-10-12T23:25:43.650Z,19.70
2018-10-12T23:28:12.931Z,19.70
2018-10-12T23:30:42.112Z,19.60
2018-10-12T23:33:22.024Z,19.50
2018-10-12T23:35:51.222Z,19.50
2018-10-12T23:38:20.422Z,19.40
2018-10-12T23:40:49.595Z,19.30
2018-10-12T23:43:18.788Z,19.30
2018-10-12T23:45:47.969Z,19.20
2018-10-12T23:48:17.226Z,19.20
2018-10-12T23:50:46.409Z,19.10
2018-10-12T23:53:15.592Z,19.10
2018-10-12T23:55:44.778Z,19.10
2018-10-12T23:58:14.003Z,19.10
